| time (UTC) | temp F | wind direction | speed MPH | gust MPH | rain 1hr in | rain 24hr in | rain mn in | humidity % | barometer mb |
| 20260506160519 | 62 | 274 | 6.0 | 18.0 | 0.00 | 0.19 | 0.16 | 90 | 1006.5 |
| 20260506155509 | 62 | 297 | 4.0 | 10.0 | 0.00 | 0.19 | 0.16 | 91 | 1006.5 |
| 20260506155043 | 62 | 349 | 2.0 | 11.0 | 0.00 | 0.19 | 0.16 | 91 | 1006.4 |
| 20260506154519 | 61 | 246 | 5.0 | 16.0 | 0.00 | 0.19 | 0.16 | 91 | 1006.4 |
| 20260506154053 | 61 | 256 | 9.0 | 18.0 | 0.00 | 0.19 | 0.16 | 91 | 1006.4 |
| 20260506153528 | 61 | 47 | 6.0 | 17.0 | 0.00 | 0.19 | 0.16 | 91 | 1006.6 |
| 20260506153043 | 61 | 311 | 5.0 | 17.0 | 0.00 | 0.19 | 0.16 | 92 | 1006.5 |
| 20260506152515 | 61 | 275 | 4.0 | 16.0 | 0.00 | 0.19 | 0.16 | 92 | 1006.4 |
| 20260506152044 | 61 | 319 | 7.0 | 16.0 | 0.00 | 0.19 | 0.16 | 92 | 1006.3 |
| 20260506151511 | 61 | 295 | 6.0 | 15.0 | 0.01 | 0.19 | 0.16 | 93 | 1006.5 |
| 20260506151045 | 61 | 309 | 4.0 | 16.0 | 0.01 | 0.19 | 0.16 | 93 | 1006.5 |
| 20260506150515 | 61 | 298 | 4.0 | 13.0 | 0.01 | 0.19 | 0.16 | 94 | 1006.3 |
| 20260506150054 | 61 | 280 | 3.0 | 13.0 | 0.01 | 0.19 | 0.16 | 95 | 1006.5 |
| 20260506145521 | 60 | 284 | 4.0 | 13.0 | 0.01 | 0.19 | 0.16 | 95 | 1006.6 |
| 20260506145053 | 60 | 271 | 6.0 | 11.0 | 0.02 | 0.19 | 0.16 | 95 | 1006.6 |
| 20260506144536 | 60 | 311 | 6.0 | 11.0 | 0.04 | 0.19 | 0.16 | 95 | 1006.5 |
| 20260506144006 | 60 | 259 | 6.0 | 14.0 | 0.04 | 0.19 | 0.16 | 95 | 1006.5 |
| 20260506143517 | 60 | 316 | 4.0 | 16.0 | 0.04 | 0.19 | 0.16 | 95 | 1006.4 |
| 20260506143051 | 60 | 262 | 4.0 | 16.0 | 0.04 | 0.19 | 0.16 | 95 | 1006.5 |
| 20260506142525 | 60 | 247 | 2.0 | 11.0 | 0.04 | 0.19 | 0.16 | 95 | 1006.8 |
| 20260506142055 | 60 | 265 | 2.0 | 9.0 | 0.05 | 0.19 | 0.16 | 95 | 1007.1 |
| 20260506141527 | 60 | 288 | 2.0 | 11.0 | 0.04 | 0.18 | 0.15 | 95 | 1006.9 |
| 20260506141042 | 59 | 315 | 2.0 | 11.0 | 0.05 | 0.18 | 0.15 | 95 | 1007.1 |
| 20260506140514 | 59 | 279 | 3.0 | 14.0 | 0.05 | 0.18 | 0.15 | 95 | 1007.2 |
| 20260506140048 | 59 | 264 | 2.0 | 11.0 | 0.06 | 0.18 | 0.15 | 94 | 1007.2 |
| 20260506135518 | 59 | 277 | 4.0 | 10.0 | 0.06 | 0.17 | 0.15 | 94 | 1007.0 |
| 20260506135053 | 59 | 319 | 4.0 | 10.0 | 0.06 | 0.16 | 0.14 | 94 | 1006.9 |
| 20260506134525 | 60 | 302 | 5.0 | 10.0 | 0.05 | 0.15 | 0.12 | 94 | 1007.1 |
| 20260506134058 | 60 | 283 | 3.0 | 8.0 | 0.06 | 0.15 | 0.12 | 94 | 1007.2 |
| 20260506133526 | 60 | 292 | 3.0 | 15.0 | 0.06 | 0.15 | 0.12 | 94 | 1007.0 |
| 20260506133102 | 60 | 292 | 5.0 | 15.0 | 0.06 | 0.15 | 0.12 | 94 | 1007.1 |
| 20260506133002 | 60 | 319 | 4.0 | 15.0 | 0.06 | 0.15 | 0.12 | 94 | 1007.0 |
| 20260506132534 | 60 | 290 | 4.0 | 9.0 | 0.07 | 0.15 | 0.12 | 94 | 1007.0 |
| 20260506132050 | 60 | 238 | 4.0 | 9.0 | 0.07 | 0.14 | 0.11 | 94 | 1007.0 |
| 20260506131517 | 60 | 295 | 3.0 | 9.0 | 0.07 | 0.14 | 0.11 | 94 | 1007.0 |
| 20260506131050 | 60 | 315 | 3.0 | 8.0 | 0.06 | 0.13 | 0.10 | 94 | 1007.0 |
| 20260506130523 | 60 | 285 | 1.0 | 10.0 | 0.06 | 0.13 | 0.10 | 94 | 1007.0 |
| 20260506130057 | 60 | 275 | 4.0 | 10.0 | 0.06 | 0.12 | 0.09 | 93 | 1007.0 |
| 20260506125533 | 60 | 277 | 1.0 | 8.0 | 0.06 | 0.11 | 0.08 | 93 | 1007.4 |
| 20260506125012 | 60 | 255 | 1.0 | 6.0 | 0.06 | 0.10 | 0.07 | 93 | 1007.4 |
| 20260506124543 | 60 | 268 | 0.0 | 4.0 | 0.06 | 0.10 | 0.07 | 93 | 1007.8 |
| 20260506124016 | 60 | 19 | 2.0 | 6.0 | 0.06 | 0.09 | 0.06 | 93 | 1007.6 |
| 20260506123547 | 60 | 300 | 1.0 | 6.0 | 0.07 | 0.09 | 0.06 | 92 | 1007.3 |
| 20260506123027 | 60 | 308 | 2.0 | 4.0 | 0.07 | 0.09 | 0.06 | 92 | 1007.3 |
| 20260506122555 | 60 | 316 | 0.0 | 3.0 | 0.07 | 0.08 | 0.05 | 92 | 1007.1 |
| 20260506122028 | 60 | 288 | 0.0 | 3.0 | 0.06 | 0.07 | 0.04 | 92 | 1007.1 |
| 20260506121600 | 60 | 343 | 1.0 | 6.0 | 0.06 | 0.07 | 0.04 | 91 | 1007.1 |
| 20260506121033 | 60 | 250 | 1.0 | 6.0 | 0.07 | 0.07 | 0.04 | 91 | 1007.0 |
| 20260506120505 | 60 | 329 | 1.0 | 5.0 | 0.06 | 0.06 | 0.04 | 90 | 1007.1 |
| 20260506120043 | 60 | 261 | 1.0 | 5.0 | 0.06 | 0.06 | 0.03 | 90 | 1007.0 |
| 20260506115513 | 60 | 230 | 2.0 | 7.0 | 0.05 | 0.05 | 0.02 | 89 | 1007.0 |
| 20260506115028 | 60 | 283 | 1.0 | 9.0 | 0.04 | 0.04 | 0.02 | 88 | 1007.2 |
| 20260506114517 | 61 | 313 | 4.0 | 9.0 | 0.03 | 0.03 | 0.01 | 87 | 1007.3 |
| 20260506114037 | 61 | 326 | 4.0 | 9.0 | 0.03 | 0.03 | 0.00 | 86 | 1007.4 |
| 20260506113511 | 61 | 302 | 2.0 | 9.0 | 0.02 | 0.02 | 0.02 | 85 | 1007.4 |
| 20260506113047 | 62 | 316 | 4.0 | 9.0 | 0.02 | 0.02 | 0.02 | 84 | 1007.4 |
| 20260506112557 | 62 | 297 | 4.0 | 10.0 | 0.01 | 0.01 | 0.01 | 83 | 1007.3 |
| 20260506112034 | 62 | 292 | 4.0 | 9.0 | 0.01 | 0.01 | 0.01 | 81 | 1007.1 |
| 20260506111559 | 63 | 265 | 2.0 | 6.0 | 0.01 | 0.01 | 0.01 | 80 | 1007.2 |
| 20260506111502 | 63 | 248 | 1.0 | 6.0 | 0.00 | 0.00 | 0.00 | 80 | 1007.1 |
| 20260506111035 | 63 | 314 | 1.0 | 8.0 | 0.00 | 0.00 | 0.00 | 79 | 1007.1 |
| 20260506110549 | 63 | 3 | 2.0 | 8.0 | 0.00 | 0.00 | 0.00 | 78 | 1007.0 |
| 20260506110005 | 63 | 330 | 2.0 | 9.0 | 0.00 | 0.00 | 0.00 | 77 | 1006.9 |
| 20260506105543 | 64 | 309 | 3.0 | 9.0 | 0.00 | 0.00 | 0.00 | 77 | 1006.9 |
| 20260506105012 | 64 | 236 | 3.0 | 9.0 | 0.00 | 0.00 | 0.00 | 76 | 1006.8 |
| 20260506104548 | 64 | 302 | 2.0 | 14.0 | 0.00 | 0.00 | 0.00 | 75 | 1006.9 |
| 20260506104018 | 64 | 194 | 4.0 | 14.0 | 0.00 | 0.00 | 0.00 | 75 | 1006.6 |
| 20260506103552 | 64 | 312 | 5.0 | 12.0 | 0.00 | 0.00 | 0.00 | 75 | 1006.5 |
| 20260506103009 | 64 | 204 | 2.0 | 12.0 | 0.00 | 0.00 | 0.00 | 75 | 1006.4 |
| 20260506102544 | 64 | 331 | 7.0 | 18.0 | 0.00 | 0.00 | 0.00 | 74 | 1006.4 |
| 20260506102015 | 64 | 323 | 6.0 | 18.0 | 0.00 | 0.00 | 0.00 | 73 | 1006.3 |
| 20260506101551 | 65 | 308 | 4.0 | 15.0 | 0.00 | 0.00 | 0.00 | 73 | 1006.2 |
| 20260506101029 | 65 | 319 | 7.0 | 15.0 | 0.00 | 0.00 | 0.00 | 73 | 1006.4 |
| 20260506100559 | 65 | 292 | 5.0 | 10.0 | 0.00 | 0.00 | 0.00 | 73 | 1006.3 |
| 20260506100029 | 65 | 290 | 5.0 | 10.0 | 0.00 | 0.00 | 0.00 | 72 | 1006.2 |
| 20260506095507 | 65 | 286 | 3.0 | 12.0 | 0.00 | 0.00 | 0.00 | 72 | 1006.1 |
| 20260506095039 | 65 | 289 | 4.0 | 17.0 | 0.00 | 0.00 | 0.00 | 72 | 1006.1 |
| 20260506094513 | 65 | 274 | 7.0 | 18.0 | 0.00 | 0.00 | 0.00 | 72 | 1006.2 |
| 20260506094044 | 65 | 335 | 4.0 | 11.0 | 0.00 | 0.00 | 0.00 | 71 | 1006.2 |
| 20260506093600 | 65 | 261 | 5.0 | 11.0 | 0.00 | 0.00 | 0.00 | 71 | 1006.2 |
| 20260506093032 | 65 | 209 | 3.0 | 15.0 | 0.00 | 0.00 | 0.00 | 70 | 1006.2 |
| 20260506092511 | 65 | 327 | 4.0 | 13.0 | 0.00 | 0.00 | 0.00 | 70 | 1006.2 |
| 20260506092045 | 65 | 264 | 6.0 | 13.0 | 0.00 | 0.00 | 0.00 | 70 | 1006.2 |
| 20260506091515 | 65 | 318 | 3.0 | 11.0 | 0.00 | 0.00 | 0.00 | 69 | 1006.2 |
| 20260506091048 | 65 | 291 | 3.0 | 17.0 | 0.00 | 0.00 | 0.00 | 69 | 1006.5 |
| 20260506090527 | 66 | 219 | 3.0 | 17.0 | 0.00 | 0.00 | 0.00 | 69 | 1006.6 |
| 20260506090054 | 66 | 269 | 7.0 | 15.0 | 0.00 | 0.00 | 0.00 | 68 | 1006.6 |
| 20260506085528 | 66 | 277 | 4.0 | 21.0 | 0.00 | 0.00 | 0.00 | 68 | 1006.5 |
| 20260506085100 | 66 | 192 | 9.0 | 21.0 | 0.00 | 0.00 | 0.00 | 68 | 1006.5 |
| 20260506085002 | 66 | 343 | 5.0 | 12.0 | 0.00 | 0.00 | 0.00 | 68 | 1006.5 |
| 20260506084540 | 66 | 298 | 3.0 | 19.0 | 0.00 | 0.00 | 0.00 | 68 | 1006.2 |
| 20260506084006 | 66 | 310 | 6.0 | 19.0 | 0.00 | 0.00 | 0.00 | 68 | 1006.4 |
| 20260506083536 | 66 | 289 | 9.0 | 17.0 | 0.00 | 0.00 | 0.00 | 67 | 1006.5 |
| 20260506083009 | 66 | 294 | 5.0 | 17.0 | 0.00 | 0.00 | 0.00 | 67 | 1006.5 |
| 20260506082522 | 66 | 307 | 5.0 | 17.0 | 0.00 | 0.00 | 0.00 | 67 | 1006.5 |
| 20260506082055 | 66 | 271 | 7.0 | 16.0 | 0.00 | 0.00 | 0.00 | 67 | 1006.6 |
| 20260506081530 | 66 | 297 | 7.0 | 16.0 | 0.00 | 0.00 | 0.00 | 66 | 1006.6 |
| 20260506081004 | 66 | 286 | 6.0 | 19.0 | 0.00 | 0.00 | 0.00 | 66 | 1006.6 |
| 20260506080532 | 66 | 290 | 5.0 | 13.0 | 0.00 | 0.00 | 0.00 | 66 | 1006.6 |
| 20260506073020 | 66 | 267 | 4.0 | 16.0 | 0.00 | 0.00 | 0.00 | 65 | 1006.6 |
| 20260506072554 | 66 | 242 | 9.0 | 16.0 | 0.00 | 0.00 | 0.00 | 64 | 1006.6 |
| 20260506072032 | 66 | 314 | 6.0 | 13.0 | 0.00 | 0.00 | 0.00 | 65 | 1006.6 |
| 20260506071555 | 66 | 292 | 7.0 | 14.0 | 0.00 | 0.00 | 0.00 | 64 | 1006.6 |
| 20260506071019 | 66 | 314 | 6.0 | 18.0 | 0.00 | 0.00 | 0.00 | 64 | 1006.5 |
| 20260506070558 | 66 | 292 | 5.0 | 13.0 | 0.00 | 0.00 | 0.00 | 64 | 1006.6 |
| 20260506062032 | 67 | 265 | 4.0 | 16.0 | 0.00 | 0.00 | 0.00 | 60 | 1007.5 |
| 20260506061508 | 68 | 283 | 3.0 | 15.0 | 0.00 | 0.00 | 0.00 | 61 | 1007.6 |
| 20260506061042 | 68 | 313 | 4.0 | 15.0 | 0.00 | 0.00 | 0.00 | 60 | 1007.6 |
| 20260506060512 | 68 | 277 | 3.0 | 13.0 | 0.00 | 0.00 | 0.00 | 59 | 1007.6 |
| 20260506051053 | 69 | 287 | 3.0 | 12.0 | 0.00 | 0.00 | 0.00 | 56 | 1007.8 |
| 20260506050531 | 69 | 247 | 4.0 | 12.0 | 0.00 | 0.00 | 0.00 | 55 | 1007.8 |
| 20260506045044 | 70 | 292 | 6.0 | 14.0 | 0.00 | 0.00 | 0.00 | 54 | 1007.9 |
| 20260506044525 | 70 | 279 | 3.0 | 15.0 | 0.00 | 0.00 | 0.00 | 53 | 1007.9 |
| 20260506044045 | 70 | 279 | 8.0 | 15.0 | 0.00 | 0.00 | 0.00 | 54 | 1008.0 |
| 20260506043517 | 70 | 275 | 8.0 | 15.0 | 0.00 | 0.00 | 0.00 | 53 | 1008.0 |
| 20260506043031 | 70 | 299 | 7.0 | 14.0 | 0.00 | 0.00 | 0.00 | 52 | 1008.0 |
| 20260506042512 | 70 | 243 | 3.0 | 14.0 | 0.00 | 0.00 | 0.00 | 53 | 1008.1 |
| 20260506042045 | 70 | 313 | 4.0 | 11.0 | 0.00 | 0.00 | 0.00 | 53 | 1007.9 |
| 20260506041514 | 70 | 289 | 3.0 | 11.0 | 0.00 | 0.00 | 0.00 | 52 | 1007.9 |
| 20260506041047 | 70 | 298 | 4.0 | 11.0 | 0.00 | 0.00 | 0.00 | 51 | 1008.0 |
| 20260506040506 | 70 | 253 | 3.0 | 11.0 | 0.00 | 0.00 | 0.00 | 51 | 1008.0 |
| 20260506040031 | 70 | 254 | 3.0 | 11.0 | 0.00 | 0.00 | 0.00 | 51 | 1008.1 |
| 20260506035559 | 70 | 293 | 3.0 | 11.0 | 0.00 | 0.00 | 0.00 | 50 | 1007.9 |
| 20260506035018 | 71 | 294 | 5.0 | 16.0 | 0.00 | 0.00 | 0.00 | 50 | 1007.8 |
| 20260506034554 | 71 | 298 | 5.0 | 16.0 | 0.00 | 0.00 | 0.00 | 48 | 1007.8 |
| 20260506034023 | 71 | 307 | 4.0 | 15.0 | 0.00 | 0.00 | 0.00 | 48 | 1007.7 |
| 20260506033558 | 71 | 258 | 7.0 | 15.0 | 0.00 | 0.00 | 0.00 | 48 | 1007.9 |
| 20260506033036 | 71 | 213 | 6.0 | 12.0 | 0.00 | 0.00 | 0.00 | 47 | 1007.8 |
| 20260506032551 | 71 | 271 | 4.0 | 9.0 | 0.00 | 0.00 | 0.00 | 47 | 1007.7 |
| 20260506032028 | 71 | 315 | 4.0 | 9.0 | 0.00 | 0.00 | 0.00 | 47 | 1007.6 |
| 20260506031603 | 71 | 327 | 4.0 | 9.0 | 0.00 | 0.00 | 0.00 | 47 | 1007.7 |
| 20260506031506 | 71 | 330 | 4.0 | 9.0 | 0.00 | 0.00 | 0.00 | 46 | 1007.7 |
| 20260506031036 | 71 | 250 | 3.0 | 10.0 | 0.00 | 0.00 | 0.00 | 46 | 1007.7 |
| 20260506030511 | 71 | 262 | 3.0 | 11.0 | 0.00 | 0.00 | 0.00 | 45 | 1007.7 |
| 20260506030041 | 71 | 235 | 5.0 | 11.0 | 0.00 | 0.00 | 0.00 | 45 | 1007.8 |
| 20260506025555 | 71 | 317 | 4.0 | 12.0 | 0.00 | 0.00 | 0.00 | 45 | 1007.7 |
| 20260506025027 | 71 | 279 | 6.0 | 12.0 | 0.00 | 0.00 | 0.00 | 45 | 1007.8 |
| 20260506024559 | 72 | 283 | 3.0 | 15.0 | 0.00 | 0.00 | 0.00 | 45 | 1007.9 |
| 20260506024035 | 72 | 248 | 5.0 | 15.0 | 0.00 | 0.00 | 0.00 | 45 | 1007.8 |
| 20260506023511 | 72 | 267 | 6.0 | 13.0 | 0.00 | 0.00 | 0.00 | 45 | 1007.8 |
| 20260506023023 | 71 | 281 | 4.0 | 11.0 | 0.00 | 0.00 | 0.00 | 45 | 1007.7 |
| 20260506022555 | 71 | 314 | 3.0 | 11.0 | 0.00 | 0.00 | 0.00 | 45 | 1007.8 |
| 20260506022023 | 71 | 298 | 6.0 | 11.0 | 0.00 | 0.00 | 0.00 | 45 | 1007.7 |
| 20260506021601 | 72 | 319 | 5.0 | 11.0 | 0.00 | 0.00 | 0.00 | 45 | 1007.7 |
| 20260506021501 | 72 | 313 | 4.0 | 11.0 | 0.00 | 0.00 | 0.00 | 44 | 1007.7 |
| 20260506021034 | 72 | 249 | 3.0 | 17.0 | 0.00 | 0.00 | 0.00 | 44 | 1007.7 |
| 20260506020510 | 72 | 290 | 6.0 | 14.0 | 0.00 | 0.00 | 0.00 | 43 | 1007.7 |
| 20260506020026 | 72 | 335 | 3.0 | 12.0 | 0.00 | 0.00 | 0.00 | 44 | 1007.8 |
| 20260506015506 | 72 | 294 | 3.0 | 11.0 | 0.00 | 0.00 | 0.00 | 44 | 1007.8 |
| 20260506015042 | 72 | 292 | 4.0 | 10.0 | 0.00 | 0.00 | 0.00 | 43 | 1007.8 |
| 20260506014508 | 72 | 308 | 3.0 | 9.0 | 0.00 | 0.00 | 0.00 | 43 | 1007.7 |
| 20260506014041 | 72 | 340 | 3.0 | 10.0 | 0.00 | 0.00 | 0.00 | 43 | 1007.7 |
| 20260506013515 | 72 | 296 | 4.0 | 10.0 | 0.00 | 0.00 | 0.00 | 42 | 1007.6 |
| 20260506013048 | 72 | 349 | 4.0 | 9.0 | 0.00 | 0.00 | 0.00 | 42 | 1007.6 |
| 20260506012519 | 72 | 319 | 3.0 | 10.0 | 0.00 | 0.00 | 0.00 | 41 | 1007.5 |
| 20260506012059 | 73 | 279 | 3.0 | 10.0 | 0.00 | 0.00 | 0.00 | 41 | 1007.5 |
| 20260506011534 | 73 | 277 | 1.0 | 9.0 | 0.00 | 0.00 | 0.00 | 40 | 1007.5 |
| 20260506011059 | 73 | 295 | 3.0 | 11.0 | 0.00 | 0.00 | 0.00 | 39 | 1007.4 |
| 20260506011006 | 73 | 269 | 2.0 | 11.0 | 0.00 | 0.00 | 0.00 | 40 | 1007.5 |
| 20260506010535 | 73 | 231 | 4.0 | 11.0 | 0.00 | 0.00 | 0.00 | 39 | 1007.4 |
| 20260506010101 | 73 | 275 | 2.0 | 11.0 | 0.00 | 0.00 | 0.00 | 39 | 1007.3 |
| 20260506005520 | 74 | 288 | 5.0 | 11.0 | 0.00 | 0.00 | 0.00 | 38 | 1007.2 |
| 20260506005053 | 74 | 229 | 4.0 | 10.0 | 0.00 | 0.00 | 0.00 | 38 | 1007.1 |
| 20260506004545 | 74 | 275 | 5.0 | 10.0 | 0.00 | 0.00 | 0.00 | 37 | 1007.1 |
| 20260506004057 | 74 | 290 | 4.0 | 10.0 | 0.00 | 0.00 | 0.00 | 36 | 1006.9 |
| 20260506003533 | 74 | 285 | 5.0 | 10.0 | 0.00 | 0.00 | 0.00 | 36 | 1007.0 |
| 20260506003047 | 75 | 302 | 4.0 | 10.0 | 0.00 | 0.00 | 0.00 | 36 | 1006.9 |
| 20260506002516 | 75 | 324 | 3.0 | 10.0 | 0.00 | 0.00 | 0.00 | 35 | 1006.8 |
| 20260506002051 | 75 | 348 | 4.0 | 12.0 | 0.00 | 0.00 | 0.00 | 35 | 1006.8 |
| 20260506001523 | 75 | 349 | 6.0 | 12.0 | 0.00 | 0.00 | 0.00 | 36 | 1006.8 |
| 20260506001057 | 75 | 172 | 6.0 | 12.0 | 0.00 | 0.00 | 0.00 | 36 | 1006.7 |
| 20260506000531 | 76 | 315 | 7.0 | 14.0 | 0.00 | 0.00 | 0.00 | 34 | 1006.6 |
| 20260506000006 | 76 | 276 | 6.0 | 14.0 | 0.00 | 0.00 | 0.00 | 34 | 1006.6 |
| 20260505235541 | 76 | 300 | 6.0 | 16.0 | 0.00 | 0.00 | 0.00 | 34 | 1006.5 |
| 20260505235013 | 77 | 299 | 10.0 | 15.0 | 0.00 | 0.00 | 0.00 | 32 | 1006.6 |
| 20260505234545 | 77 | 311 | 5.0 | 18.0 | 0.00 | 0.00 | 0.00 | 33 | 1006.5 |
| 20260505234014 | 77 | 314 | 6.0 | 17.0 | 0.00 | 0.00 | 0.00 | 32 | 1006.3 |
| 20260505233548 | 77 | 264 | 8.0 | 23.0 | 0.00 | 0.00 | 0.00 | 31 | 1006.4 |
| 20260505233023 | 77 | 319 | 9.0 | 18.0 | 0.00 | 0.00 | 0.00 | 31 | 1006.5 |
| 20260505232550 | 78 | 306 | 9.0 | 18.0 | 0.00 | 0.00 | 0.00 | 32 | 1006.4 |
| 20260505232021 | 78 | 306 | 4.0 | 21.0 | 0.00 | 0.00 | 0.00 | 32 | 1006.3 |
| 20260505231555 | 78 | 267 | 7.0 | 20.0 | 0.00 | 0.00 | 0.00 | 32 | 1006.4 |
| 20260505231028 | 79 | 311 | 6.0 | 16.0 | 0.00 | 0.00 | 0.00 | 32 | 1006.5 |
| 20260505230542 | 79 | 286 | 9.0 | 16.0 | 0.00 | 0.00 | 0.00 | 32 | 1006.3 |
| 20260505230015 | 79 | 310 | 6.0 | 15.0 | 0.00 | 0.00 | 0.00 | 33 | 1006.5 |
| 20260505225546 | 79 | 281 | 6.0 | 15.0 | 0.00 | 0.00 | 0.00 | 33 | 1006.5 |
| 20260505225024 | 79 | 277 | 5.0 | 12.0 | 0.00 | 0.00 | 0.00 | 33 | 1006.6 |
| 20260505224551 | 79 | 306 | 5.0 | 17.0 | 0.00 | 0.00 | 0.00 | 33 | 1006.6 |
| 20260505224026 | 79 | 315 | 6.0 | 17.0 | 0.00 | 0.00 | 0.00 | 34 | 1006.4 |
| 20260505223541 | 79 | 258 | 5.0 | 26.0 | 0.00 | 0.00 | 0.00 | 33 | 1006.4 |
| 20260505223014 | 80 | 311 | 12.0 | 26.0 | 0.00 | 0.00 | 0.00 | 32 | 1006.4 |
| 20260505222550 | 80 | 327 | 8.0 | 24.0 | 0.00 | 0.00 | 0.00 | 33 | 1006.5 |
| 20260505222024 | 80 | 284 | 10.0 | 26.0 | 0.00 | 0.00 | 0.00 | 33 | 1006.5 |
| 20260505221603 | 80 | 311 | 8.0 | 26.0 | 0.00 | 0.00 | 0.00 | 34 | 1006.7 |
| 20260505221016 | 79 | 284 | 3.0 | 19.0 | 0.00 | 0.00 | 0.00 | 33 | 1006.6 |
| 20260505220551 | 79 | 311 | 7.0 | 19.0 | 0.00 | 0.00 | 0.00 | 33 | 1006.6 |
| 20260505220022 | 79 | 261 | 7.0 | 18.0 | 0.00 | 0.00 | 0.00 | 33 | 1006.6 |
| 20260505215554 | 79 | 271 | 6.0 | 19.0 | 0.00 | 0.00 | 0.00 | 33 | 1006.5 |
| 20260505215030 | 79 | 324 | 8.0 | 21.0 | 0.00 | 0.00 | 0.00 | 33 | 1006.4 |
| 20260505214549 | 80 | 350 | 9.0 | 25.0 | 0.00 | 0.00 | 0.00 | 32 | 1006.2 |
| 20260505214020 | 80 | 278 | 5.0 | 16.0 | 0.00 | 0.00 | 0.00 | 32 | 1006.3 |
| 20260505213554 | 80 | 265 | 7.0 | 20.0 | 0.00 | 0.00 | 0.00 | 32 | 1006.3 |
| 20260505213040 | 80 | 295 | 8.0 | 19.0 | 0.00 | 0.00 | 0.00 | 33 | 1006.2 |
| 20260505212509 | 81 | 299 | 8.0 | 20.0 | 0.00 | 0.00 | 0.00 | 33 | 1006.2 |
| 20260505212041 | 80 | 268 | 10.0 | 17.0 | 0.00 | 0.00 | 0.00 | 33 | 1006.3 |
| 20260505211512 | 80 | 262 | 8.0 | 20.0 | 0.00 | 0.00 | 0.00 | 33 | 1006.3 |
| 20260505211029 | 80 | 283 | 9.0 | 24.0 | 0.00 | 0.00 | 0.00 | 35 | 1006.3 |
| 20260505210559 | 80 | 291 | 10.0 | 24.0 | 0.00 | 0.00 | 0.00 | 32 | 1006.3 |
| 20260505210502 | 80 | 296 | 8.0 | 20.0 | 0.00 | 0.00 | 0.00 | 32 | 1006.3 |
| 20260505210038 | 80 | 279 | 10.0 | 20.0 | 0.00 | 0.00 | 0.00 | 32 | 1006.3 |
| 20260505205508 | 80 | 280 | 11.0 | 24.0 | 0.00 | 0.00 | 0.00 | 32 | 1006.3 |
| 20260505205042 | 80 | 308 | 5.0 | 24.0 | 0.00 | 0.00 | 0.00 | 34 | 1006.3 |
| 20260505204515 | 80 | 304 | 7.0 | 21.0 | 0.00 | 0.00 | 0.00 | 34 | 1006.3 |
| 20260505204034 | 80 | 254 | 10.0 | 20.0 | 0.00 | 0.00 | 0.00 | 32 | 1006.3 |
| 20260505203506 | 80 | 250 | 8.0 | 25.0 | 0.00 | 0.00 | 0.00 | 33 | 1006.4 |
| 20260505203048 | 80 | 301 | 7.0 | 25.0 | 0.00 | 0.00 | 0.00 | 34 | 1006.4 |
| 20260505202509 | 80 | 347 | 7.0 | 21.0 | 0.00 | 0.00 | 0.00 | 35 | 1006.5 |
| 20260505202044 | 81 | 243 | 10.0 | 21.0 | 0.00 | 0.00 | 0.00 | 34 | 1006.3 |
| 20260505201515 | 81 | 304 | 8.0 | 22.0 | 0.00 | 0.00 | 0.00 | 34 | 1006.5 |
| 20260505201050 | 81 | 311 | 10.0 | 20.0 | 0.00 | 0.00 | 0.00 | 34 | 1006.3 |
| 20260505200508 | 81 | 333 | 5.0 | 20.0 | 0.00 | 0.00 | 0.00 | 36 | 1006.4 |
| 20260505200042 | 81 | 259 | 7.0 | 20.0 | 0.00 | 0.00 | 0.00 | 33 | 1006.6 |
| 20260505195519 | 81 | 271 | 9.0 | 24.0 | 0.00 | 0.00 | 0.00 | 34 | 1006.6 |
| 20260505195046 | 82 | 308 | 10.0 | 20.0 | 0.00 | 0.00 | 0.00 | 36 | 1006.6 |
| 20260505194523 | 82 | 311 | 7.0 | 17.0 | 0.00 | 0.00 | 0.00 | 36 | 1006.6 |
| 20260505194052 | 82 | 282 | 7.0 | 17.0 | 0.00 | 0.00 | 0.00 | 37 | 1006.7 |
| 20260505193511 | 81 | 306 | 8.0 | 18.0 | 0.00 | 0.00 | 0.00 | 36 | 1006.7 |
| 20260505193102 | 82 | 360 | 11.0 | 21.0 | 0.00 | 0.00 | 0.00 | 37 | 1006.7 |
| 20260505192513 | 82 | 286 | 10.0 | 22.0 | 0.00 | 0.00 | 0.00 | 39 | 1006.7 |
| 20260505192048 | 82 | 304 | 12.0 | 21.0 | 0.00 | 0.00 | 0.00 | 37 | 1006.9 |
| 20260505191532 | 82 | 208 | 6.0 | 20.0 | 0.00 | 0.00 | 0.00 | 41 | 1006.7 |
| 20260505191056 | 81 | 149 | 5.0 | 25.0 | 0.00 | 0.00 | 0.00 | 38 | 1006.7 |
| 20260505190529 | 82 | 283 | 11.0 | 23.0 | 0.00 | 0.00 | 0.00 | 37 | 1006.9 |
| 20260505190005 | 82 | 305 | 6.0 | 21.0 | 0.00 | 0.00 | 0.00 | 40 | 1007.0 |
| 20260505185538 | 82 | 288 | 5.0 | 13.0 | 0.00 | 0.00 | 0.00 | 40 | 1007.0 |
| 20260505185012 | 81 | 321 | 6.0 | 16.0 | 0.00 | 0.00 | 0.00 | 40 | 1007.1 |
| 20260505184551 | 81 | 238 | 7.0 | 19.0 | 0.00 | 0.00 | 0.00 | 40 | 1007.1 |
| 20260505184016 | 81 | 283 | 8.0 | 19.0 | 0.00 | 0.00 | 0.00 | 40 | 1007.2 |
| 20260505183533 | 81 | 17 | 6.0 | 16.0 | 0.00 | 0.00 | 0.00 | 40 | 1007.1 |
| 20260505183006 | 81 | 236 | 8.0 | 16.0 | 0.00 | 0.00 | 0.00 | 40 | 1007.2 |
| 20260505182539 | 81 | 261 | 9.0 | 17.0 | 0.00 | 0.00 | 0.00 | 40 | 1007.3 |
| 20260505182012 | 81 | 318 | 10.0 | 20.0 | 0.00 | 0.00 | 0.00 | 39 | 1007.5 |
| 20260505181546 | 81 | 283 | 7.0 | 17.0 | 0.00 | 0.00 | 0.00 | 41 | 1007.5 |
| 20260505181023 | 80 | 256 | 6.0 | 15.0 | 0.00 | 0.00 | 0.00 | 41 | 1007.5 |
| 20260505180539 | 80 | 267 | 8.0 | 17.0 | 0.00 | 0.00 | 0.00 | 42 | 1007.8 |
| 20260505180008 | 80 | 221 | 2.0 | 17.0 | 0.00 | 0.00 | 0.00 | 41 | 1007.8 |
| 20260505175537 | 80 | 302 | 7.0 | 19.0 | 0.00 | 0.00 | 0.00 | 42 | 1008.0 |
| 20260505175010 | 80 | 295 | 8.0 | 19.0 | 0.00 | 0.00 | 0.00 | 41 | 1008.0 |
| 20260505174544 | 80 | 254 | 9.0 | 19.0 | 0.00 | 0.00 | 0.00 | 41 | 1008.0 |
| 20260505174026 | 80 | 294 | 7.0 | 19.0 | 0.00 | 0.00 | 0.00 | 44 | 1008.1 |
| 20260505173542 | 80 | 244 | 8.0 | 15.0 | 0.00 | 0.00 | 0.00 | 45 | 1008.3 |
| 20260505173016 | 79 | 356 | 5.0 | 18.0 | 0.00 | 0.00 | 0.00 | 44 | 1008.3 |
| 20260505172547 | 79 | 226 | 10.0 | 18.0 | 0.00 | 0.00 | 0.00 | 43 | 1008.3 |
| 20260505172017 | 79 | 283 | 3.0 | 19.0 | 0.00 | 0.00 | 0.00 | 42 | 1008.4 |
| 20260505171551 | 79 | 260 | 8.0 | 19.0 | 0.00 | 0.00 | 0.00 | 42 | 1008.5 |
| 20260505171008 | 79 | 315 | 3.0 | 13.0 | 0.00 | 0.00 | 0.00 | 42 | 1008.3 |
| 20260505170539 | 79 | 283 | 6.0 | 16.0 | 0.00 | 0.00 | 0.00 | 40 | 1008.5 |
| 20260505170019 | 79 | 75 | 7.0 | 18.0 | 0.00 | 0.00 | 0.00 | 42 | 1008.7 |
| 20260505165553 | 79 | 248 | 5.0 | 17.0 | 0.00 | 0.00 | 0.00 | 40 | 1008.7 |
| 20260505165012 | 79 | 7 | 5.0 | 14.0 | 0.00 | 0.00 | 0.00 | 43 | 1008.6 |
| 20260505164546 | 78 | 315 | 6.0 | 14.0 | 0.00 | 0.00 | 0.00 | 41 | 1009.0 |
| 20260505164018 | 78 | 288 | 4.0 | 17.0 | 0.00 | 0.00 | 0.00 | 42 | 1009.1 |
| 20260505163555 | 78 | 283 | 8.0 | 17.0 | 0.00 | 0.00 | 0.00 | 42 | 1009.0 |
| 20260505163036 | 78 | 201 | 6.0 | 13.0 | 0.00 | 0.00 | 0.00 | 44 | 1009.0 |
| 20260505162600 | 78 | 282 | 6.0 | 13.0 | 0.00 | 0.00 | 0.00 | 43 | 1009.1 |
| 20260505162015 | 78 | 297 | 6.0 | 15.0 | 0.00 | 0.00 | 0.00 | 45 | 1009.2 |
| 20260505161548 | 78 | 300 | 7.0 | 16.0 | 0.00 | 0.00 | 0.00 | 43 | 1009.3 |